sensor_id;sensor_type;location;lat;lon;timestamp;P1;P2;P0
76043;PMS7003;64740;34.694;33.088;2023-07-31T00:01:01;7.3;7.1;5.5
76043;PMS7003;64740;34.694;33.088;2023-07-31T00:05:17;7.5;7.4;5.8
76043;PMS7003;64740;34.694;33.088;2023-07-31T00:10:17;8.5;8.2;6.1
76043;PMS7003;64740;34.694;33.088;2023-07-31T00:15:47;8.1;7.8;6.4
76043;PMS7003;64740;34.694;33.088;2023-07-31T00:21:01;7.1;6.9;5.5
76043;PMS7003;64740;34.694;33.088;2023-07-31T00:25:23;7.6;7.6;5.7
76043;PMS7003;64740;34.694;33.088;2023-07-31T00:30:17;7.8;7.6;6
76043;PMS7003;64740;34.694;33.088;2023-07-31T00:35:48;7.8;7.5;6
76043;PMS7003;64740;34.694;33.088;2023-07-31T00:40:34;7.8;7.5;6.1
76043;PMS7003;64740;34.694;33.088;2023-07-31T00:45:45;7.8;7.5;6
76043;PMS7003;64740;34.694;33.088;2023-07-31T00:50:17;8.1;7.9;6
76043;PMS7003;64740;34.694;33.088;2023-07-31T00:56:01;7.3;7.2;5.6
76043;PMS7003;64740;34.694;33.088;2023-07-31T01:00:31;7.7;7.6;6.3
76043;PMS7003;64740;34.694;33.088;2023-07-31T01:05:39;8.2;8.1;6.6
76043;PMS7003;64740;34.694;33.088;2023-07-31T01:11:02;7.8;7.7;6.2
76043;PMS7003;64740;34.694;33.088;2023-07-31T01:15:47;7.3;7.2;5.8
76043;PMS7003;64740;34.694;33.088;2023-07-31T01:20:25;7.8;7.7;6.2
76043;PMS7003;64740;34.694;33.088;2023-07-31T01:25:43;7.5;7.4;5.8
76043;PMS7003;64740;34.694;33.088;2023-07-31T01:30:47;7.1;7.1;5.5
76043;PMS7003;64740;34.694;33.088;2023-07-31T01:35:17;6.7;6.6;5.3
76043;PMS7003;64740;34.694;33.088;2023-07-31T01:40:37;6.4;6.4;5.1
76043;PMS7003;64740;34.694;33.088;2023-07-31T01:46:01;6.9;6.7;5.5
76043;PMS7003;64740;34.694;33.088;2023-07-31T01:50:45;6.9;6.9;5.5
76043;PMS7003;64740;34.694;33.088;2023-07-31T01:55:23;6.8;6.7;5.4
76043;PMS7003;64740;34.694;33.088;2023-07-31T02:00:35;7;6.8;5.5
76043;PMS7003;64740;34.694;33.088;2023-07-31T02:05:23;7;6.9;5.5
76043;PMS7003;64740;34.694;33.088;2023-07-31T02:10:17;6.5;6.5;5.2
76043;PMS7003;64740;34.694;33.088;2023-07-31T02:15:37;7.4;7;5.5
76043;PMS7003;64740;34.694;33.088;2023-07-31T02:20:51;6.9;6.9;5.5
76043;PMS7003;64740;34.694;33.088;2023-07-31T02:25:45;7.1;7.1;5.4
76043;PMS7003;64740;34.694;33.088;2023-07-31T02:30:45;6.7;6.5;5.2
76043;PMS7003;64740;34.694;33.088;2023-07-31T02:35:35;6.2;6.2;5
76043;PMS7003;64740;34.694;33.088;2023-07-31T02:40:17;6.5;6.4;5.1
76043;PMS7003;64740;34.694;33.088;2023-07-31T02:45:17;6.9;6.9;5.2
76043;PMS7003;64740;34.694;33.088;2023-07-31T02:51:01;6.9;6.7;5.1
76043;PMS7003;64740;34.694;33.088;2023-07-31T02:55:31;7.1;6.9;5.4
76043;PMS7003;64740;34.694;33.088;2023-07-31T03:00:45;6.9;6.8;5.5
76043;PMS7003;64740;34.694;33.088;2023-07-31T03:06:01;6.7;6.7;5.3
76043;PMS7003;64740;34.694;33.088;2023-07-31T03:10:51;7.3;7.3;5.7
76043;PMS7003;64740;34.694;33.088;2023-07-31T03:15:17;6.8;6.8;5.3
76043;PMS7003;64740;34.694;33.088;2023-07-31T03:20:51;7.3;7.3;5.7
76043;PMS7003;64740;34.694;33.088;2023-07-31T03:26:02;7.8;7.7;5.9
76043;PMS7003;64740;34.694;33.088;2023-07-31T03:31:01;7.1;7;5.8
76043;PMS7003;64740;34.694;33.088;2023-07-31T03:36:01;7.1;6.9;5.3
76043;PMS7003;64740;34.694;33.088;2023-07-31T03:41:01;7.3;7.1;5.4
76043;PMS7003;64740;34.694;33.088;2023-07-31T03:45:31;7.3;7.1;5.4
76043;PMS7003;64740;34.694;33.088;2023-07-31T03:50:23;7.8;7.6;5.9
76043;PMS7003;64740;34.694;33.088;2023-07-31T03:55:47;7.3;7.3;5.8
76043;PMS7003;64740;34.694;33.088;2023-07-31T04:01:01;8.3;8.1;6.2
76043;PMS7003;64740;34.694;33.088;2023-07-31T04:05:47;7.8;7.6;5.8
76043;PMS7003;64740;34.694;33.088;2023-07-31T04:10:51;8;8;6.3
76043;PMS7003;64740;34.694;33.088;2023-07-31T04:15:51;8.5;8.4;6.6
76043;PMS7003;64740;34.694;33.088;2023-07-31T04:20:23;8.1;7.9;6.1
76043;PMS7003;64740;34.694;33.088;2023-07-31T04:26:01;9;8.6;6.5
76043;PMS7003;64740;34.694;33.088;2023-07-31T04:30:37;8.8;8.7;6.7
76043;PMS7003;64740;34.694;33.088;2023-07-31T04:35:31;9.3;8.7;6.7
76043;PMS7003;64740;34.694;33.088;2023-07-31T04:40:47;8.8;8.7;6.8
76043;PMS7003;64740;34.694;33.088;2023-07-31T04:45:47;7.2;7.1;5.8
76043;PMS7003;64740;34.694;33.088;2023-07-31T04:50:23;8.1;7.9;6.2
76043;PMS7003;64740;34.694;33.088;2023-07-31T04:55:17;8.8;8.6;6.8
76043;PMS7003;64740;34.694;33.088;2023-07-31T05:00:45;9.3;9;6.9
76043;PMS7003;64740;34.694;33.088;2023-07-31T05:05:35;9.2;9;7.3
76043;PMS7003;64740;34.694;33.088;2023-07-31T05:10:29;9.6;9.4;7.7
76043;PMS7003;64740;34.694;33.088;2023-07-31T05:15:33;9.8;9.5;7.5
76043;PMS7003;64740;34.694;33.088;2023-07-31T05:20:59;9.5;9.4;7.1
76043;PMS7003;64740;34.694;33.088;2023-07-31T05:25:21;9.8;9.8;7.7
76043;PMS7003;64740;34.694;33.088;2023-07-31T05:30:21;10.3;10.2;7.9
76043;PMS7003;64740;34.694;33.088;2023-07-31T05:35:59;10.9;10.6;8.5
76043;PMS7003;64740;34.694;33.088;2023-07-31T05:40:43;10.6;10.2;8.1
76043;PMS7003;64740;34.694;33.088;2023-07-31T05:45:45;10.7;10.6;8.6
76043;PMS7003;64740;34.694;33.088;2023-07-31T05:50:17;11.5;11.2;8.9
76043;PMS7003;64740;34.694;33.088;2023-07-31T05:55:35;10.5;10.4;8.2
76043;PMS7003;64740;34.694;33.088;2023-07-31T06:00:17;10.6;10.4;8.5
76043;PMS7003;64740;34.694;33.088;2023-07-31T06:05:59;10.2;9.8;7.7
76043;PMS7003;64740;34.694;33.088;2023-07-31T06:10:59;10.1;9.9;7.9
76043;PMS7003;64740;34.694;33.088;2023-07-31T06:15:43;10.7;10.2;8
76043;PMS7003;64740;34.694;33.088;2023-07-31T06:20:29;10.9;10.6;8.3
76043;PMS7003;64740;34.694;33.088;2023-07-31T06:25:29;10.4;10.1;7.9
76043;PMS7003;64740;34.694;33.088;2023-07-31T06:30:17;10.3;10.2;8.2
76043;PMS7003;64740;34.694;33.088;2023-07-31T06:35:17;10.6;10.4;8.4
76043;PMS7003;64740;34.694;33.088;2023-07-31T06:40:35;10.1;9.9;7.8
76043;PMS7003;64740;34.694;33.088;2023-07-31T06:45:47;11.1;11;8.7
76043;PMS7003;64740;34.694;33.088;2023-07-31T06:50:19;10.4;9.9;8
76043;PMS7003;64740;34.694;33.088;2023-07-31T06:55:41;10.8;10.6;8.3
76043;PMS7003;64740;34.694;33.088;2023-07-31T07:00:31;10.5;10.4;8.1
76043;PMS7003;64740;34.694;33.088;2023-07-31T07:05:17;9.6;9.5;8
76043;PMS7003;64740;34.694;33.088;2023-07-31T07:10:21;9.8;9.6;7.6
76043;PMS7003;64740;34.694;33.088;2023-07-31T07:15:57;9.6;9.6;7.7
76043;PMS7003;64740;34.694;33.088;2023-07-31T07:20:29;8.2;8.2;6.5
76043;PMS7003;64740;34.694;33.088;2023-07-31T07:25:41;9.1;9;7.5
76043;PMS7003;64740;34.694;33.088;2023-07-31T07:30:57;8.2;8.1;6.6
76043;PMS7003;64740;34.694;33.088;2023-07-31T07:35:43;8.7;8.6;6.8
76043;PMS7003;64740;34.694;33.088;2023-07-31T07:40:17;8.7;8.5;6.5
76043;PMS7003;64740;34.694;33.088;2023-07-31T07:45:23;8.2;7.9;6.6
76043;PMS7003;64740;34.694;33.088;2023-07-31T07:50:57;9;8.9;7.2
76043;PMS7003;64740;34.694;33.088;2023-07-31T07:55:57;8.4;8.3;6.8
76043;PMS7003;64740;34.694;33.088;2023-07-31T08:00:57;8.4;8.2;6.6
76043;PMS7003;64740;34.694;33.088;2023-07-31T08:05:57;8.6;8.4;6.8
76043;PMS7003;64740;34.694;33.088;2023-07-31T08:10:17;9.1;9;7.4
76043;PMS7003;64740;34.694;33.088;2023-07-31T08:15:21;9.4;9.2;7.5
76043;PMS7003;64740;34.694;33.088;2023-07-31T08:20:33;9.2;8.9;7.2
76043;PMS7003;64740;34.694;33.088;2023-07-31T08:25:57;8.8;8.6;6.8
76043;PMS7003;64740;34.694;33.088;2023-07-31T08:30:45;9.4;9.2;7.4
76043;PMS7003;64740;34.694;33.088;2023-07-31T08:35:57;8.6;8.5;6.9
76043;PMS7003;64740;34.694;33.088;2023-07-31T08:40:57;7.9;7.8;6.3
76043;PMS7003;64740;34.694;33.088;2023-07-31T08:45:17;8.8;8.4;6.6
76043;PMS7003;64740;34.694;33.088;2023-07-31T08:50:35;8.5;8.2;6.6
76043;PMS7003;64740;34.694;33.088;2023-07-31T08:55:35;9.4;8.4;6.5
76043;PMS7003;64740;34.694;33.088;2023-07-31T09:00:57;8.2;8;6.5
76043;PMS7003;64740;34.694;33.088;2023-07-31T09:05:45;9.2;9;7.2
76043;PMS7003;64740;34.694;33.088;2023-07-31T09:10:59;9.2;9;7.3
76043;PMS7003;64740;34.694;33.088;2023-07-31T09:15:21;8.5;8.2;6.7
76043;PMS7003;64740;34.694;33.088;2023-07-31T09:20:27;9.1;8.9;7.3
76043;PMS7003;64740;34.694;33.088;2023-07-31T09:25:45;8;7.8;6.3
76043;PMS7003;64740;34.694;33.088;2023-07-31T09:30:17;7.2;7;5.7
76043;PMS7003;64740;34.694;33.088;2023-07-31T09:35:27;7.4;7.3;5.8
76043;PMS7003;64740;34.694;33.088;2023-07-31T09:40:25;8.3;7.9;6.4
76043;PMS7003;64740;34.694;33.088;2023-07-31T09:45:57;7.2;7.1;5.8
76043;PMS7003;64740;34.694;33.088;2023-07-31T09:50:17;7.1;6.8;5.7
76043;PMS7003;64740;34.694;33.088;2023-07-31T09:55:29;7.7;7.6;6
76043;PMS7003;64740;34.694;33.088;2023-07-31T10:00:59;7.7;7.1;5.9
76043;PMS7003;64740;34.694;33.088;2023-07-31T10:05:45;7.3;7.1;5.7
76043;PMS7003;64740;34.694;33.088;2023-07-31T10:10:17;7.9;7.4;5.6
76043;PMS7003;64740;34.694;33.088;2023-07-31T10:15:33;7.4;7.2;5.7
76043;PMS7003;64740;34.694;33.088;2023-07-31T10:20:43;6.9;6.7;5.3
76043;PMS7003;64740;34.694;33.088;2023-07-31T10:25:17;7;6.8;5.4
76043;PMS7003;64740;34.694;33.088;2023-07-31T10:30:35;6.7;6.6;5.4
76043;PMS7003;64740;34.694;33.088;2023-07-31T10:36:13;6.5;6.4;5.1
76043;PMS7003;64740;34.694;33.088;2023-07-31T10:40:43;5.7;5.6;4.6
76043;PMS7003;64740;34.694;33.088;2023-07-31T10:45:24;6.3;6.1;4.6
76043;PMS7003;64740;34.694;33.088;2023-07-31T10:50:37;6.3;6.3;4.9
76043;PMS7003;64740;34.694;33.088;2023-07-31T10:55:43;6.8;6.6;5.1
76043;PMS7003;64740;34.694;33.088;2023-07-31T11:00:26;5.6;5.2;4
76043;PMS7003;64740;34.694;33.088;2023-07-31T11:05:43;6.1;6;4.8
76043;PMS7003;64740;34.694;33.088;2023-07-31T11:10:49;6.2;6.1;4.9
76043;PMS7003;64740;34.694;33.088;2023-07-31T11:15:43;6.1;6;4.7
76043;PMS7003;64740;34.694;33.088;2023-07-31T11:20:23;5.5;5.1;3.6
76043;PMS7003;64740;34.694;33.088;2023-07-31T11:25:33;5.3;5.2;4.4
76043;PMS7003;64740;34.694;33.088;2023-07-31T11:30:21;5.8;5.8;4.5
76043;PMS7003;64740;34.694;33.088;2023-07-31T11:35:17;5.8;5.7;4.5
76043;PMS7003;64740;34.694;33.088;2023-07-31T11:40:59;6;5.9;4.8
76043;PMS7003;64740;34.694;33.088;2023-07-31T11:45:17;5.5;5.5;4.5
76043;PMS7003;64740;34.694;33.088;2023-07-31T11:50:35;6;5.7;4.6
76043;PMS7003;64740;34.694;33.088;2023-07-31T11:55:59;5.8;5.7;4.7
76043;PMS7003;64740;34.694;33.088;2023-07-31T12:00:49;5.4;5.3;4.3
76043;PMS7003;64740;34.694;33.088;2023-07-31T12:05:43;5.4;5.4;4.4
76043;PMS7003;64740;34.694;33.088;2023-07-31T12:10:27;6.1;6.1;4.8
76043;PMS7003;64740;34.694;33.088;2023-07-31T12:16:00;5.8;5.6;4.4
76043;PMS7003;64740;34.694;33.088;2023-07-31T12:20:46;4.9;4.8;3.7
76043;PMS7003;64740;34.694;33.088;2023-07-31T12:25:59;5.6;5.4;4.5
76043;PMS7003;64740;34.694;33.088;2023-07-31T12:30:56;5.2;4.9;3.7
76043;PMS7003;64740;34.694;33.088;2023-07-31T12:35:21;6.1;6;4.9
76043;PMS7003;64740;34.694;33.088;2023-07-31T12:40:21;5;4.9;3.7
76043;PMS7003;64740;34.694;33.088;2023-07-31T12:45:20;5.6;5.6;4.5
76043;PMS7003;64740;34.694;33.088;2023-07-31T12:51:01;5.9;5.9;4.7
76043;PMS7003;64740;34.694;33.088;2023-07-31T12:55:19;5.8;5.8;4.8
76043;PMS7003;64740;34.694;33.088;2023-07-31T13:00:19;4.6;4.5;3.8
76043;PMS7003;64740;34.694;33.088;2023-07-31T13:06:01;5.3;5.3;4.5
76043;PMS7003;64740;34.694;33.088;2023-07-31T13:10:29;5.6;5.5;4.6
76043;PMS7003;64740;34.694;33.088;2023-07-31T13:15:21;5.4;5.4;4.7
76043;PMS7003;64740;34.694;33.088;2023-07-31T13:20:35;5.9;5.9;5.1
76043;PMS7003;64740;34.694;33.088;2023-07-31T13:26:01;5.8;5.8;4.7
76043;PMS7003;64740;34.694;33.088;2023-07-31T13:30:46;5.9;5.8;4.8
76043;PMS7003;64740;34.694;33.088;2023-07-31T13:35:51;5.6;5.5;4.4
76043;PMS7003;64740;34.694;33.088;2023-07-31T13:40:35;5.9;5.8;4.8
76043;PMS7003;64740;34.694;33.088;2023-07-31T13:45:17;6;5.9;4.7
76043;PMS7003;64740;34.694;33.088;2023-07-31T13:50:59;5.9;5.7;4.9
76043;PMS7003;64740;34.694;33.088;2023-07-31T13:55:21;5.4;5.4;4.6
76043;PMS7003;64740;34.694;33.088;2023-07-31T14:00:17;6.8;6.6;5.5
76043;PMS7003;64740;34.694;33.088;2023-07-31T14:05:45;6.1;5.9;4.6
76043;PMS7003;64740;34.694;33.088;2023-07-31T14:11:01;5.9;5.7;4.8
76043;PMS7003;64740;34.694;33.088;2023-07-31T14:15:21;6.1;5.9;5.1
76043;PMS7003;64740;34.694;33.088;2023-07-31T14:20:17;6.9;6.8;5.6
76043;PMS7003;64740;34.694;33.088;2023-07-31T14:25:45;5.7;5.5;4.4
76043;PMS7003;64740;34.694;33.088;2023-07-31T14:30:35;5.7;5.6;4.7
76043;PMS7003;64740;34.694;33.088;2023-07-31T14:35:29;6.3;6.1;5
76043;PMS7003;64740;34.694;33.088;2023-07-31T14:40:17;6.8;6.6;5.7
76043;PMS7003;64740;34.694;33.088;2023-07-31T14:45:45;6.6;6.6;5.4
76043;PMS7003;64740;34.694;33.088;2023-07-31T14:50:21;5.9;5.8;4.8
76043;PMS7003;64740;34.694;33.088;2023-07-31T14:55:51;5.5;5.3;4.2
76043;PMS7003;64740;34.694;33.088;2023-07-31T15:01:01;6;5.9;5
76043;PMS7003;64740;34.694;33.088;2023-07-31T15:05:45;6.8;6.7;5.5
76043;PMS7003;64740;34.694;33.088;2023-07-31T15:10:25;6.8;6.7;5.6
76043;PMS7003;64740;34.694;33.088;2023-07-31T15:15:35;7.1;6.9;5.8
76043;PMS7003;64740;34.694;33.088;2023-07-31T15:20:17;6.8;6.7;5.6
76043;PMS7003;64740;34.694;33.088;2023-07-31T15:25:29;6.5;6.4;5.2
76043;PMS7003;64740;34.694;33.088;2023-07-31T15:30:17;6.7;6.4;5.3
76043;PMS7003;64740;34.694;33.088;2023-07-31T15:35:47;7.5;7.2;6.1
76043;PMS7003;64740;34.694;33.088;2023-07-31T15:40:45;7.1;6.8;5.6
76043;PMS7003;64740;34.694;33.088;2023-07-31T15:45:43;6.7;6.5;5.3
76043;PMS7003;64740;34.694;33.088;2023-07-31T15:50:17;7;6.8;5.6
76043;PMS7003;64740;34.694;33.088;2023-07-31T15:55:17;6.9;6.9;5.5
76043;PMS7003;64740;34.694;33.088;2023-07-31T16:00:17;7.5;7.2;6.2
76043;PMS7003;64740;34.694;33.088;2023-07-31T16:06:01;7.7;7.5;6.3
76043;PMS7003;64740;34.694;33.088;2023-07-31T16:10:29;7.4;7.3;6.1
76043;PMS7003;64740;34.694;33.088;2023-07-31T16:15:19;7.5;7.4;6.2
76043;PMS7003;64740;34.694;33.088;2023-07-31T16:21:01;7.1;7;5.5
76043;PMS7003;64740;34.694;33.088;2023-07-31T16:25:51;7.3;7.1;6
76043;PMS7003;64740;34.694;33.088;2023-07-31T16:30:17;7.8;7.6;6.2
76043;PMS7003;64740;34.694;33.088;2023-07-31T16:35:51;7.5;7.2;6.1
76043;PMS7003;64740;34.694;33.088;2023-07-31T16:41:01;7.7;7.5;6.2
76043;PMS7003;64740;34.694;33.088;2023-07-31T16:45:59;7.4;7.3;5.9
76043;PMS7003;64740;34.694;33.088;2023-07-31T16:50:59;7.9;7.8;6.5
76043;PMS7003;64740;34.694;33.088;2023-07-31T16:56:01;9.1;8.8;7
76043;PMS7003;64740;34.694;33.088;2023-07-31T17:00:41;8.3;8.3;6.8
76043;PMS7003;64740;34.694;33.088;2023-07-31T17:05:31;7;6.8;5.4
76043;PMS7003;64740;34.694;33.088;2023-07-31T17:10:51;6.8;6.7;5.5
76043;PMS7003;64740;34.694;33.088;2023-07-31T17:16:01;7.2;7.2;5.9
76043;PMS7003;64740;34.694;33.088;2023-07-31T17:20:59;8.5;7.9;6.5
76043;PMS7003;64740;34.694;33.088;2023-07-31T17:25:51;7.9;7.6;6
76043;PMS7003;64740;34.694;33.088;2023-07-31T17:31:01;7.6;7.5;6.1
76043;PMS7003;64740;34.694;33.088;2023-07-31T17:35:17;6.8;6.8;5.3
76043;PMS7003;64740;34.694;33.088;2023-07-31T17:40:21;7.6;7.5;6.2
76043;PMS7003;64740;34.694;33.088;2023-07-31T17:45:35;8.2;8.1;6.6
76043;PMS7003;64740;34.694;33.088;2023-07-31T17:51:03;7.6;7.5;6.1
76043;PMS7003;64740;34.694;33.088;2023-07-31T17:55:39;9.3;9;7.1
76043;PMS7003;64740;34.694;33.088;2023-07-31T18:00:53;9.7;9.6;7.7
76043;PMS7003;64740;34.694;33.088;2023-07-31T18:05:37;9.1;8.8;7.3
76043;PMS7003;64740;34.694;33.088;2023-07-31T18:10:23;7.5;7.3;6
76043;PMS7003;64740;34.694;33.088;2023-07-31T18:16:03;10;9.7;7.7
76043;PMS7003;64740;34.694;33.088;2023-07-31T18:20:35;8.1;8;6.4
76043;PMS7003;64740;34.694;33.088;2023-07-31T18:25:19;8.9;8.8;7.3
76043;PMS7003;64740;34.694;33.088;2023-07-31T18:30:33;10;10;7.8
76043;PMS7003;64740;34.694;33.088;2023-07-31T18:36:03;10.3;10;8
76043;PMS7003;64740;34.694;33.088;2023-07-31T18:40:33;10.4;10.3;8.2
76043;PMS7003;64740;34.694;33.088;2023-07-31T18:45:23;12;11.8;9.2
76043;PMS7003;64740;34.694;33.088;2023-07-31T18:50:47;9.6;9.5;7.5
76043;PMS7003;64740;34.694;33.088;2023-07-31T18:55:40;7.9;7.9;6.8
76043;PMS7003;64740;34.694;33.088;2023-07-31T19:00:27;9.3;9.1;7.1
76043;PMS7003;64740;34.694;33.088;2023-07-31T19:05:38;8.7;8.6;7
76043;PMS7003;64740;34.694;33.088;2023-07-31T19:11:03;9.2;9.1;7.4
76043;PMS7003;64740;34.694;33.088;2023-07-31T19:15:19;9.4;9.2;7.5
76043;PMS7003;64740;34.694;33.088;2023-07-31T19:20:37;9;8.7;7
76043;PMS7003;64740;34.694;33.088;2023-07-31T19:26:03;9.4;9.3;7.3
76043;PMS7003;64740;34.694;33.088;2023-07-31T19:30:47;9.6;9.2;7.5
76043;PMS7003;64740;34.694;33.088;2023-07-31T19:35:31;10.1;10;8
76043;PMS7003;64740;34.694;33.088;2023-07-31T19:40:37;9.8;9.7;7.6
76043;PMS7003;64740;34.694;33.088;2023-07-31T19:45:43;9.7;9.5;7.3
76043;PMS7003;64740;34.694;33.088;2023-07-31T19:50:38;9.4;9.2;7.5
76043;PMS7003;64740;34.694;33.088;2023-07-31T19:55:37;9;8.9;7.3
76043;PMS7003;64740;34.694;33.088;2023-07-31T20:01:01;10;10;8
76043;PMS7003;64740;34.694;33.088;2023-07-31T20:05:45;10.6;10.4;8.4
76043;PMS7003;64740;34.694;33.088;2023-07-31T20:10:47;10;9.8;7.8
76043;PMS7003;64740;34.694;33.088;2023-07-31T20:15:20;8.6;8.4;6.5
76043;PMS7003;64740;34.694;33.088;2023-07-31T20:20:23;8.4;8.4;7.1
76043;PMS7003;64740;34.694;33.088;2023-07-31T20:25:19;8.3;8.3;6.8
76043;PMS7003;64740;34.694;33.088;2023-07-31T20:31:03;9.1;8.8;7.2
76043;PMS7003;64740;34.694;33.088;2023-07-31T20:35:19;9.3;9.1;7.4
76043;PMS7003;64740;34.694;33.088;2023-07-31T20:40:29;9.1;9;7.4
76043;PMS7003;64740;34.694;33.088;2023-07-31T20:45:47;9.2;9;7.3
76043;PMS7003;64740;34.694;33.088;2023-07-31T20:50:53;8.2;8.1;6.6
76043;PMS7003;64740;34.694;33.088;2023-07-31T20:55:47;8.2;8;6.5
76043;PMS7003;64740;34.694;33.088;2023-07-31T21:00:53;8.3;8.3;6.5
76043;PMS7003;64740;34.694;33.088;2023-07-31T21:06:03;9;8.9;7.3
76043;PMS7003;64740;34.694;33.088;2023-07-31T21:11:03;8.5;8.4;6.6
76043;PMS7003;64740;34.694;33.088;2023-07-31T21:16:03;9.6;8.9;7.2
76043;PMS7003;64740;34.694;33.088;2023-07-31T21:21:03;8.3;8.2;6.8
76043;PMS7003;64740;34.694;33.088;2023-07-31T21:25:19;8.3;8.1;6.5
76043;PMS7003;64740;34.694;33.088;2023-07-31T21:30:37;9.3;9.1;7.4
76043;PMS7003;64740;34.694;33.088;2023-07-31T21:35:53;8.1;8.1;6.6
76043;PMS7003;64740;34.694;33.088;2023-07-31T21:40:59;8.9;8.7;7
76043;PMS7003;64740;34.694;33.088;2023-07-31T21:45:31;10.1;9.9;8.2
76043;PMS7003;64740;34.694;33.088;2023-07-31T21:50:53;9;9;7.2
76043;PMS7003;64740;34.694;33.088;2023-07-31T21:56:03;9.7;9.7;7.8
76043;PMS7003;64740;34.694;33.088;2023-07-31T22:00:20;10.1;10.1;8.2
76043;PMS7003;64740;34.694;33.088;2023-07-31T22:05:23;10.1;9.8;8.1
76043;PMS7003;64740;34.694;33.088;2023-07-31T22:10:37;8.7;8.6;6.9
76043;PMS7003;64740;34.694;33.088;2023-07-31T22:16:03;9.4;9.3;7.5
76043;PMS7003;64740;34.694;33.088;2023-07-31T22:20:48;10.5;10.4;8.6
76043;PMS7003;64740;34.694;33.088;2023-07-31T22:25:53;10.6;10.6;8.4
76043;PMS7003;64740;34.694;33.088;2023-07-31T22:30:19;11.8;11.7;9.6
76043;PMS7003;64740;34.694;33.088;2023-07-31T22:35:27;10.7;10.6;8.6
76043;PMS7003;64740;34.694;33.088;2023-07-31T22:41:03;10.4;10.2;8.3
76043;PMS7003;64740;34.694;33.088;2023-07-31T22:45:53;10.2;10.2;8.3
76043;PMS7003;64740;34.694;33.088;2023-07-31T22:50:19;10.3;10.2;8
76043;PMS7003;64740;34.694;33.088;2023-07-31T22:55:47;9;8.9;7.4
76043;PMS7003;64740;34.694;33.088;2023-07-31T23:01:04;10.3;9.9;7.9
76043;PMS7003;64740;34.694;33.088;2023-07-31T23:05:23;9.5;9.4;7.8
76043;PMS7003;64740;34.694;33.088;2023-07-31T23:10:19;10.3;10;7.8
76043;PMS7003;64740;34.694;33.088;2023-07-31T23:15:21;9.7;9.6;7.9
76043;PMS7003;64740;34.694;33.088;2023-07-31T23:20:19;9.8;9.7;7.8
76043;PMS7003;64740;34.694;33.088;2023-07-31T23:25:19;9;8.9;7
76043;PMS7003;64740;34.694;33.088;2023-07-31T23:30:23;9.2;9.1;7.1
76043;PMS7003;64740;34.694;33.088;2023-07-31T23:36:11;7.8;7.7;5.9
76043;PMS7003;64740;34.694;33.088;2023-07-31T23:40:33;8.7;8.6;6.9
76043;PMS7003;64740;34.694;33.088;2023-07-31T23:45:33;8.9;8.9;6.8
76043;PMS7003;64740;34.694;33.088;2023-07-31T23:51:03;8.8;8.5;7
76043;PMS7003;64740;34.694;33.088;2023-07-31T23:55:49;9.2;9.2;7.1
